createdAt,value
2019-02-21T00:01:17.102Z,-0.80
2019-02-21T00:03:45.820Z,-0.80
2019-02-21T00:06:14.545Z,-0.80
2019-02-21T00:08:43.292Z,-0.80
2019-02-21T00:11:12.015Z,-0.90
2019-02-21T00:13:40.730Z,-0.90
2019-02-21T00:16:09.444Z,-0.90
2019-02-21T00:18:38.928Z,-1.00
2019-02-21T00:21:07.675Z,-1.00
2019-02-21T00:23:36.323Z,-1.00
2019-02-21T00:26:05.036Z,-1.10
2019-02-21T00:28:34.623Z,-1.10
2019-02-21T00:31:03.410Z,-1.10
2019-02-21T00:33:32.218Z,-1.20
2019-02-21T00:36:00.880Z,-1.30
2019-02-21T00:38:30.451Z,-1.30
2019-02-21T00:40:59.180Z,-1.30
2019-02-21T00:43:27.895Z,-1.30
2019-02-21T00:45:56.636Z,-1.30
2019-02-21T00:48:25.349Z,-1.30
2019-02-21T00:50:54.060Z,-1.30
2019-02-21T00:53:22.791Z,-1.30
2019-02-21T00:55:51.499Z,-1.30
2019-02-21T00:58:20.298Z,-1.30
2019-02-21T01:00:48.975Z,-1.30
2019-02-21T01:03:17.694Z,-1.40
2019-02-21T01:05:46.435Z,-1.40
2019-02-21T01:08:15.144Z,-1.30
2019-02-21T01:10:43.883Z,-1.40
2019-02-21T01:13:12.599Z,-1.40
2019-02-21T01:15:41.322Z,-1.40
2019-02-21T01:18:10.042Z,-1.40
2019-02-21T01:20:38.756Z,-1.40
2019-02-21T01:23:07.492Z,-1.50
2019-02-21T01:25:36.210Z,-1.60
2019-02-21T01:28:04.922Z,-1.60
2019-02-21T01:30:33.638Z,-1.60
2019-02-21T01:33:02.357Z,-1.60
2019-02-21T01:35:31.353Z,-1.60
2019-02-21T01:38:00.067Z,-1.60
2019-02-21T01:40:29.667Z,-1.60
2019-02-21T01:42:58.379Z,-1.50
2019-02-21T01:45:27.091Z,-1.50
2019-02-21T01:47:55.838Z,-1.60
2019-02-21T01:50:24.548Z,-1.60
2019-02-21T01:52:53.262Z,-1.70
2019-02-21T01:55:21.985Z,-1.70
2019-02-21T01:57:50.706Z,-1.70
2019-02-21T02:00:19.448Z,-1.80
2019-02-21T02:02:48.160Z,-1.90
2019-02-21T02:05:16.872Z,-1.90
2019-02-21T02:07:45.602Z,-1.90
2019-02-21T02:10:14.304Z,-2.00
2019-02-21T02:12:43.055Z,-1.80
2019-02-21T02:15:11.793Z,-1.90
2019-02-21T02:17:40.492Z,-1.70
2019-02-21T02:20:10.007Z,-1.80
2019-02-21T02:22:38.723Z,-1.80
2019-02-21T02:25:07.484Z,-1.80
2019-02-21T02:27:36.196Z,-1.70
2019-02-21T02:30:06.587Z,-1.70
2019-02-21T02:32:35.307Z,-1.70
2019-02-21T02:35:04.812Z,-1.80
2019-02-21T02:37:33.568Z,-1.80
2019-02-21T02:40:02.209Z,-1.90
2019-02-21T02:42:31.821Z,-1.90
2019-02-21T02:45:00.536Z,-1.80
2019-02-21T02:47:29.249Z,-1.80
2019-02-21T02:49:58.023Z,-1.80
2019-02-21T02:52:26.715Z,-1.80
2019-02-21T02:54:55.424Z,-1.80
2019-02-21T02:57:24.152Z,-1.70
2019-02-21T02:59:52.867Z,-1.80
2019-02-21T03:02:21.615Z,-1.70
2019-02-21T03:04:50.402Z,-1.80
2019-02-21T03:07:19.093Z,-1.80
2019-02-21T03:09:47.809Z,-1.90
2019-02-21T03:12:16.540Z,-2.00
2019-02-21T03:14:45.279Z,-2.00
2019-02-21T03:17:13.982Z,-2.00
2019-02-21T03:19:42.692Z,-2.00
2019-02-21T03:22:11.430Z,-2.00
2019-02-21T03:24:40.132Z,-2.10
2019-02-21T03:27:08.870Z,-2.10
2019-02-21T03:29:37.585Z,-2.20
2019-02-21T03:32:06.293Z,-2.20
2019-02-21T03:34:35.008Z,-2.30
2019-02-21T03:37:03.726Z,-2.30
2019-02-21T03:39:32.461Z,-2.40
2019-02-21T03:42:01.175Z,-2.40
2019-02-21T03:44:30.830Z,-2.40
2019-02-21T03:46:59.538Z,-2.40
2019-02-21T03:49:28.248Z,-2.40
2019-02-21T03:51:56.996Z,-2.50
2019-02-21T03:54:25.710Z,-2.50
2019-02-21T03:57:13.724Z,-2.50
2019-02-21T03:59:42.484Z,-2.50
2019-02-21T04:02:11.556Z,-2.60
2019-02-21T04:04:40.302Z,-2.60
2019-02-21T04:07:09.003Z,-2.70
2019-02-21T04:09:37.715Z,-2.70
2019-02-21T04:12:06.451Z,-2.70
2019-02-21T04:14:36.773Z,-2.70
2019-02-21T04:17:05.619Z,-2.70
2019-02-21T04:19:34.347Z,-2.70
2019-02-21T04:22:03.067Z,-2.70
2019-02-21T04:24:31.775Z,-2.80
2019-02-21T04:27:00.495Z,-2.70
2019-02-21T04:29:30.857Z,-2.70
2019-02-21T04:31:59.564Z,-2.70
2019-02-21T04:34:28.280Z,-2.80
2019-02-21T04:36:56.996Z,-2.70
2019-02-21T04:39:25.708Z,-2.70
2019-02-21T04:41:54.469Z,-2.60
2019-02-21T04:44:23.155Z,-2.70
2019-02-21T04:46:51.861Z,-2.70
2019-02-21T04:49:20.580Z,-2.70
2019-02-21T04:51:49.307Z,-2.70
2019-02-21T04:54:18.012Z,-2.80
2019-02-21T04:56:46.732Z,-2.80
2019-02-21T04:59:15.458Z,-2.90
2019-02-21T05:01:44.169Z,-2.90
2019-02-21T05:04:12.892Z,-2.90
2019-02-21T05:06:41.547Z,-2.90
2019-02-21T05:09:10.288Z,-3.00
2019-02-21T05:11:38.974Z,-3.00
2019-02-21T05:14:07.692Z,-3.00
2019-02-21T05:16:36.416Z,-3.10
2019-02-21T05:19:05.125Z,-3.00
2019-02-21T05:21:33.837Z,-3.00
2019-02-21T05:24:02.559Z,-3.00
2019-02-21T05:26:42.140Z,-3.00
2019-02-21T05:29:12.487Z,-3.00
2019-02-21T05:31:42.884Z,-3.10
2019-02-21T05:34:13.240Z,-3.00
2019-02-21T05:36:43.524Z,-3.00
2019-02-21T05:39:16.966Z,-3.00
2019-02-21T05:41:50.302Z,-3.10
2019-02-21T05:44:23.676Z,-3.20
2019-02-21T05:46:54.031Z,-3.20
2019-02-21T05:49:33.315Z,-3.10
2019-02-21T05:52:12.369Z,-3.00
2019-02-21T05:54:42.764Z,-3.00
2019-02-21T05:57:13.125Z,-3.00
2019-02-21T05:59:43.476Z,-2.90
2019-02-21T06:02:20.133Z,-2.90
2019-02-21T06:04:53.202Z,-2.90
2019-02-21T06:07:29.028Z,-2.90
2019-02-21T06:10:02.152Z,-2.80
2019-02-21T06:12:49.131Z,-2.70
2019-02-21T06:15:37.340Z,-2.70
2019-02-21T06:18:19.879Z,-2.60
2019-02-21T06:20:57.519Z,-2.60
2019-02-21T06:23:39.545Z,-2.60
2019-02-21T06:26:15.077Z,-2.60
2019-02-21T06:28:48.384Z,-2.60
2019-02-21T06:31:18.169Z,-2.50
2019-02-21T06:33:49.394Z,-2.50
2019-02-21T06:36:17.254Z,-2.50
2019-02-21T06:38:45.964Z,-2.40
2019-02-21T06:41:14.716Z,-2.40
2019-02-21T06:43:43.437Z,-2.40
2019-02-21T06:46:13.722Z,-2.30
2019-02-21T06:48:42.681Z,-2.30
2019-02-21T06:51:11.400Z,-2.30
2019-02-21T06:53:40.170Z,-2.30
2019-02-21T06:56:08.879Z,-2.20
2019-02-21T06:58:37.604Z,-2.20
2019-02-21T07:01:06.327Z,-2.10
2019-02-21T07:03:35.052Z,-2.10
2019-02-21T07:06:03.803Z,-2.00
2019-02-21T07:08:32.509Z,-2.00
2019-02-21T07:11:06.273Z,-1.90
2019-02-21T07:13:31.600Z,-1.90
2019-02-21T07:16:00.325Z,-1.90
2019-02-21T07:18:29.125Z,-1.90
2019-02-21T07:20:57.780Z,-1.80
2019-02-21T07:23:27.271Z,-1.70
2019-02-21T07:25:57.464Z,-1.60
2019-02-21T07:28:27.838Z,-1.50
2019-02-21T07:30:56.727Z,-1.30
2019-02-21T07:33:28.823Z,-1.40
2019-02-21T07:35:55.831Z,-1.40
2019-02-21T07:38:24.550Z,-1.30
2019-02-21T07:40:53.286Z,-0.60
2019-02-21T07:43:24.721Z,0.30
2019-02-21T07:45:52.388Z,0.70
2019-02-21T07:48:21.104Z,1.20
2019-02-21T07:51:09.095Z,2.10
2019-02-21T07:53:37.812Z,2.10
2019-02-21T07:56:06.549Z,2.60
2019-02-21T07:58:35.263Z,3.40
2019-02-21T08:01:03.980Z,3.60
2019-02-21T08:03:43.967Z,3.80
2019-02-21T08:06:03.061Z,2.60
2019-02-21T08:08:32.542Z,3.10
2019-02-21T08:11:01.426Z,2.50
2019-02-21T08:13:30.148Z,2.80
2019-02-21T08:15:58.867Z,3.10
2019-02-21T08:18:28.505Z,2.80
2019-02-21T08:20:57.251Z,2.90
2019-02-21T08:23:26.029Z,3.20
2019-02-21T08:25:54.676Z,2.50
2019-02-21T08:28:23.388Z,2.70
2019-02-21T08:30:52.100Z,3.70
2019-02-21T08:33:31.440Z,4.60
2019-02-21T08:36:00.162Z,4.30
2019-02-21T08:38:28.915Z,4.30
2019-02-21T08:40:57.624Z,4.70
2019-02-21T08:43:26.328Z,5.00
2019-02-21T08:45:57.477Z,4.70
2019-02-21T08:48:25.407Z,5.00
2019-02-21T08:50:54.153Z,5.00
2019-02-21T08:53:22.874Z,4.90
2019-02-21T08:55:51.600Z,4.90
2019-02-21T08:58:20.308Z,3.80
2019-02-21T09:00:49.103Z,3.60
2019-02-21T09:03:18.220Z,2.60
2019-02-21T09:05:46.939Z,2.80
2019-02-21T09:08:16.779Z,3.00
2019-02-21T09:10:45.676Z,3.40
2019-02-21T09:13:14.387Z,3.10
2019-02-21T09:15:43.153Z,3.70
2019-02-21T09:18:11.864Z,3.10
2019-02-21T09:20:40.580Z,3.30
2019-02-21T09:23:09.308Z,3.70
2019-02-21T09:25:38.015Z,3.50
2019-02-21T09:28:06.773Z,3.60
2019-02-21T09:30:35.487Z,3.10
2019-02-21T09:33:04.216Z,3.30
2019-02-21T09:37:53.899Z,2.70
2019-02-21T09:40:22.643Z,3.00
2019-02-21T09:42:51.432Z,3.00
2019-02-21T09:45:20.140Z,2.80
2019-02-21T09:47:48.862Z,2.40
2019-02-21T09:50:17.572Z,2.90
2019-02-21T09:52:46.275Z,3.00
2019-02-21T09:55:16.993Z,3.20
2019-02-21T09:57:45.715Z,3.00
2019-02-21T10:00:21.776Z,2.80
2019-02-21T10:02:53.434Z,2.10
2019-02-21T10:05:20.860Z,2.30
2019-02-21T10:07:49.584Z,2.60
2019-02-21T10:10:19.774Z,2.10
2019-02-21T10:12:48.515Z,2.20
2019-02-21T10:15:17.425Z,2.00
2019-02-21T10:17:46.133Z,1.20
2019-02-21T10:20:17.163Z,0.40
2019-02-21T10:22:45.870Z,0.10
2019-02-21T10:25:22.788Z,-0.20
2019-02-21T10:27:50.581Z,-0.40
2019-02-21T10:30:21.005Z,-0.50
2019-02-21T10:32:49.714Z,-0.60
2019-02-21T10:35:18.431Z,-0.50
2019-02-21T10:37:47.172Z,-0.70
2019-02-21T10:40:16.304Z,-0.70
2019-02-21T10:42:45.021Z,-0.70
2019-02-21T10:45:16.111Z,-0.70
2019-02-21T10:47:44.818Z,-0.80
2019-02-21T10:50:15.897Z,-0.70
2019-02-21T10:52:44.612Z,-0.70
2019-02-21T10:55:13.722Z,-0.60
2019-02-21T10:57:45.165Z,-0.50
2019-02-21T11:00:18.127Z,-0.40
2019-02-21T11:02:46.959Z,-0.30
2019-02-21T11:05:15.680Z,-0.30
2019-02-21T11:07:44.411Z,-0.30
2019-02-21T11:10:15.359Z,-0.40
2019-02-21T11:12:44.079Z,-0.30
2019-02-21T11:15:15.242Z,-0.30
2019-02-21T11:17:43.955Z,-0.20
2019-02-21T11:20:14.976Z,-0.10
2019-02-21T11:22:43.702Z,-0.20
2019-02-21T11:25:12.640Z,-0.20
2019-02-21T11:27:41.385Z,-0.30
2019-02-21T11:30:15.709Z,-0.30
2019-02-21T11:32:44.422Z,-0.30
2019-02-21T11:35:13.746Z,-0.30
2019-02-21T11:37:45.790Z,-0.40
2019-02-21T11:40:16.976Z,-0.40
2019-02-21T11:42:46.308Z,-0.50
2019-02-21T11:45:19.087Z,-0.60
2019-02-21T11:47:47.817Z,-0.60
2019-02-21T11:50:18.388Z,-0.50
2019-02-21T11:52:47.164Z,-0.50
2019-02-21T11:55:23.464Z,-0.50
2019-02-21T11:57:52.316Z,-0.50
2019-02-21T12:00:26.236Z,-0.50
2019-02-21T12:02:54.960Z,-0.50
2019-02-21T12:05:31.892Z,-0.60
2019-02-21T12:07:54.348Z,-0.60
2019-02-21T12:10:23.083Z,-0.70
2019-02-21T12:12:51.806Z,-0.70
2019-02-21T12:15:20.515Z,-0.60
2019-02-21T12:17:49.242Z,-0.60
2019-02-21T12:20:19.251Z,-0.70
2019-02-21T12:22:48.408Z,-0.70
2019-02-21T12:25:18.831Z,-0.70
2019-02-21T12:27:47.549Z,-0.70
2019-02-21T12:30:18.056Z,-0.70
2019-02-21T12:32:46.780Z,-0.70
2019-02-21T12:35:15.597Z,-0.70
2019-02-21T12:37:44.308Z,-0.70
2019-02-21T12:40:15.684Z,-0.80
2019-02-21T12:42:44.404Z,-0.80
2019-02-21T12:45:15.125Z,-0.90
2019-02-21T12:47:50.665Z,-0.90
2019-02-21T12:50:14.544Z,-1.00
2019-02-21T12:52:43.256Z,-1.00
2019-02-21T12:55:12.280Z,-0.90
2019-02-21T12:57:40.993Z,-0.90
2019-02-21T13:00:15.022Z,-1.00
2019-02-21T13:02:43.728Z,-0.90
2019-02-21T13:05:12.440Z,-0.90
2019-02-21T13:07:41.236Z,-1.00
2019-02-21T13:10:12.192Z,-1.00
2019-02-21T13:12:40.949Z,-1.00
2019-02-21T13:15:11.753Z,-1.20
2019-02-21T13:17:40.464Z,-1.30
2019-02-21T13:20:11.654Z,-1.20
2019-02-21T13:22:40.373Z,-1.20
2019-02-21T13:25:11.278Z,-1.20
2019-02-21T13:27:40.040Z,-1.20
2019-02-21T13:30:11.637Z,-1.30
2019-02-21T13:32:40.480Z,-1.40
2019-02-21T13:35:10.276Z,-1.50
2019-02-21T13:37:39.054Z,-1.40
2019-02-21T13:40:10.438Z,-1.40
2019-02-21T13:42:39.152Z,-1.40
2019-02-21T13:45:09.769Z,-1.30
2019-02-21T13:47:39.285Z,-1.30
2019-02-21T13:50:10.916Z,-1.40
2019-02-21T13:52:39.640Z,-1.40
2019-02-21T13:55:08.969Z,-1.50
2019-02-21T13:57:37.686Z,-1.60
2019-02-21T14:00:09.407Z,-1.60
2019-02-21T14:02:38.152Z,-1.60
2019-02-21T14:05:07.765Z,-1.70
2019-02-21T14:07:37.345Z,-1.70
2019-02-21T14:10:11.419Z,-1.80
2019-02-21T14:12:40.132Z,-1.80
2019-02-21T14:15:26.573Z,-1.90
2019-02-21T14:17:55.301Z,-2.00
2019-02-21T14:20:23.999Z,-2.00
2019-02-21T14:22:52.760Z,-2.10
2019-02-21T14:25:21.400Z,-2.10
2019-02-21T14:27:50.130Z,-2.10
2019-02-21T14:30:20.074Z,-2.10
2019-02-21T14:32:48.792Z,-2.10
2019-02-21T14:35:17.513Z,-2.10
2019-02-21T14:37:46.245Z,-2.10
2019-02-21T14:40:17.025Z,-2.20
2019-02-21T14:42:45.874Z,-2.20
2019-02-21T14:45:17.387Z,-2.20
2019-02-21T14:47:46.092Z,-2.20
2019-02-21T14:50:16.103Z,-2.20
2019-02-21T14:52:44.834Z,-2.10
2019-02-21T14:55:16.317Z,-2.20
2019-02-21T14:57:45.079Z,-2.20
2019-02-21T15:00:19.317Z,-2.10
2019-02-21T15:02:48.136Z,-2.10
2019-02-21T15:05:17.050Z,-2.20
2019-02-21T15:07:45.760Z,-2.30
2019-02-21T15:10:15.304Z,-2.40
2019-02-21T15:12:44.030Z,-2.40
2019-02-21T15:15:18.100Z,-2.40
2019-02-21T15:17:46.828Z,-2.40
2019-02-21T15:20:17.017Z,-2.40
2019-02-21T15:22:46.256Z,-2.40
2019-02-21T15:25:15.355Z,-2.50
2019-02-21T15:27:44.567Z,-2.50
2019-02-21T15:30:18.759Z,-2.50
2019-02-21T15:32:48.268Z,-2.40
2019-02-21T15:35:19.484Z,-2.50
2019-02-21T15:37:48.393Z,-2.50
2019-02-21T15:40:17.488Z,-2.50
2019-02-21T15:42:46.847Z,-2.60
2019-02-21T15:45:24.377Z,-2.50
2019-02-21T15:47:53.788Z,-2.50
2019-02-21T15:50:22.984Z,-2.60
2019-02-21T15:52:53.692Z,-2.70
2019-02-21T15:55:23.237Z,-2.70
2019-02-21T15:58:03.351Z,-2.70
2019-02-21T16:00:27.317Z,-2.70
2019-02-21T16:02:56.464Z,-2.60
2019-02-21T16:05:25.688Z,-2.60
2019-02-21T16:07:55.013Z,-2.70
2019-02-21T16:10:26.105Z,-2.70
2019-02-21T16:12:55.976Z,-2.80
2019-02-21T16:15:25.847Z,-3.00
2019-02-21T16:17:55.055Z,-2.90
2019-02-21T16:20:24.161Z,-2.90
2019-02-21T16:22:53.304Z,-2.90
2019-02-21T16:25:24.748Z,-3.00
2019-02-21T16:27:55.475Z,-2.80
2019-02-21T16:30:25.096Z,-2.70
2019-02-21T16:32:54.331Z,-2.60
2019-02-21T16:35:23.575Z,-2.60
2019-02-21T16:37:52.798Z,-2.60
2019-02-21T16:40:22.159Z,-2.70
2019-02-21T16:42:51.444Z,-2.80
2019-02-21T16:45:21.464Z,-2.70
2019-02-21T16:47:50.685Z,-2.80
2019-02-21T16:50:29.184Z,-2.90
2019-02-21T16:52:50.696Z,-3.00
2019-02-21T16:55:21.308Z,-3.00
2019-02-21T16:57:52.016Z,-2.80
2019-02-21T17:00:22.124Z,-2.80
2019-02-21T17:02:51.466Z,-2.80
2019-02-21T17:05:20.849Z,-2.80
2019-02-21T17:07:50.185Z,-2.80
2019-02-21T17:10:20.739Z,-2.80
2019-02-21T17:12:50.028Z,-2.90
2019-02-21T17:15:19.328Z,-3.00
2019-02-21T17:17:48.708Z,-2.90
2019-02-21T17:20:23.117Z,-2.90
2019-02-21T17:22:52.572Z,-2.90
2019-02-21T17:25:21.796Z,-3.00
2019-02-21T17:27:51.019Z,-3.00
2019-02-21T17:30:20.454Z,-3.10
2019-02-21T17:32:49.801Z,-3.10
2019-02-21T17:35:18.991Z,-3.10
2019-02-21T17:37:48.176Z,-3.10
2019-02-21T17:40:22.256Z,-3.20
2019-02-21T17:42:51.531Z,-3.20
2019-02-21T17:45:20.952Z,-3.20
2019-02-21T17:47:50.279Z,-3.10
2019-02-21T17:50:20.225Z,-3.10
2019-02-21T17:52:49.472Z,-3.10
2019-02-21T17:55:18.931Z,-3.20
2019-02-21T17:57:48.312Z,-3.20
2019-02-21T18:00:23.938Z,-3.30
2019-02-21T18:02:53.281Z,-3.20
2019-02-21T18:05:22.599Z,-3.30
2019-02-21T18:07:51.838Z,-3.30
2019-02-21T18:10:21.343Z,-3.30
2019-02-21T18:12:50.638Z,-3.40
2019-02-21T18:15:19.991Z,-3.30
2019-02-21T18:17:49.224Z,-3.30
2019-02-21T18:20:18.541Z,-3.30
2019-02-21T18:22:47.871Z,-3.40
2019-02-21T18:25:28.595Z,-3.30
2019-02-21T18:27:57.828Z,-3.40
2019-02-21T18:30:27.158Z,-3.50
2019-02-21T18:32:56.488Z,-3.40
2019-02-21T18:35:25.712Z,-3.40
2019-02-21T18:37:55.169Z,-3.50
2019-02-21T18:40:25.884Z,-3.60
2019-02-21T18:42:55.102Z,-3.60
2019-02-21T18:45:24.315Z,-3.60
2019-02-21T18:47:53.651Z,-3.70
2019-02-21T18:50:23.008Z,-3.80
2019-02-21T18:52:52.343Z,-3.80
2019-02-21T18:55:21.440Z,-3.90
2019-02-21T18:57:50.756Z,-3.80
2019-02-21T19:00:24.805Z,-3.90
2019-02-21T19:02:54.136Z,-3.90
2019-02-21T19:05:23.560Z,-3.90
2019-02-21T19:08:03.323Z,-3.90
2019-02-21T19:10:24.144Z,-3.90
2019-02-21T19:12:52.886Z,-3.90
2019-02-21T19:15:22.297Z,-3.90
2019-02-21T19:17:51.004Z,-4.00
2019-02-21T19:20:21.000Z,-4.00
2019-02-21T19:22:49.647Z,-4.10
2019-02-21T19:25:18.472Z,-4.10
2019-02-21T19:27:48.923Z,-4.10
2019-02-21T19:30:25.647Z,-4.20
2019-02-21T19:32:53.772Z,-4.20
2019-02-21T19:35:22.588Z,-4.20
2019-02-21T19:37:51.312Z,-4.20
2019-02-21T19:40:20.113Z,-4.30
2019-02-21T19:42:48.896Z,-4.30
2019-02-21T19:45:17.628Z,-4.20
2019-02-21T19:47:46.368Z,-4.20
2019-02-21T19:50:15.112Z,-4.30
2019-02-21T19:52:43.827Z,-4.30
2019-02-21T19:55:12.947Z,-4.30
2019-02-21T19:57:41.736Z,-4.40
2019-02-21T20:00:14.515Z,-4.30
2019-02-21T20:02:43.216Z,-4.30
2019-02-21T20:05:11.953Z,-4.40
2019-02-21T20:07:40.688Z,-4.50
2019-02-21T20:10:09.692Z,-4.30
2019-02-21T20:12:38.474Z,-4.30
2019-02-21T20:15:09.187Z,-4.30
2019-02-21T20:17:40.772Z,-4.40
2019-02-21T20:20:21.071Z,-4.50
2019-02-21T20:22:49.826Z,-4.50
2019-02-21T20:25:18.611Z,-4.60
2019-02-21T20:27:47.327Z,-4.70
2019-02-21T20:30:17.454Z,-4.50
2019-02-21T20:32:46.171Z,-4.50
2019-02-21T20:35:15.528Z,-4.50
2019-02-21T20:37:44.251Z,-4.50
2019-02-21T20:40:13.082Z,-4.60
2019-02-21T20:42:41.797Z,-4.60
2019-02-21T20:45:12.276Z,-4.70
2019-02-21T20:47:41.029Z,-4.80
2019-02-21T20:50:12.031Z,-4.80
2019-02-21T20:52:40.931Z,-4.80
2019-02-21T20:55:12.644Z,-4.80
2019-02-21T20:57:41.360Z,-4.80
2019-02-21T21:00:15.835Z,-4.80
2019-02-21T21:02:44.653Z,-4.90
2019-02-21T21:05:13.772Z,-4.90
2019-02-21T21:07:42.592Z,-4.80
2019-02-21T21:10:16.043Z,-4.80
2019-02-21T21:12:44.816Z,-4.90
2019-02-21T21:15:14.700Z,-4.80
2019-02-21T21:17:43.512Z,-4.90
2019-02-21T21:20:17.391Z,-4.90
2019-02-21T21:22:46.399Z,-5.00
2019-02-21T21:25:18.764Z,-5.00
2019-02-21T21:27:47.499Z,-5.00
2019-02-21T21:30:17.617Z,-5.00
2019-02-21T21:32:46.332Z,-5.00
2019-02-21T21:35:15.050Z,-5.10
2019-02-21T21:37:43.816Z,-5.10
2019-02-21T21:40:17.856Z,-5.10
2019-02-21T21:42:46.572Z,-5.10
2019-02-21T21:45:16.683Z,-5.10
2019-02-21T21:47:45.420Z,-5.10
2019-02-21T21:50:19.087Z,-5.10
2019-02-21T21:52:47.796Z,-5.10
2019-02-21T21:55:16.513Z,-5.20
2019-02-21T21:57:45.289Z,-5.10
2019-02-21T22:00:18.043Z,-5.10
2019-02-21T22:02:47.010Z,-5.10
2019-02-21T22:05:15.731Z,-5.20
2019-02-21T22:07:44.445Z,-5.30
2019-02-21T22:10:14.261Z,-5.40
2019-02-21T22:12:42.981Z,-5.40
2019-02-21T22:15:17.644Z,-5.30
2019-02-21T22:17:46.296Z,-5.30
2019-02-21T22:20:15.008Z,-5.40
2019-02-21T22:22:43.736Z,-5.40
2019-02-21T22:25:13.544Z,-5.30
2019-02-21T22:27:42.495Z,-5.40
2019-02-21T22:30:16.598Z,-5.50
2019-02-21T22:32:45.316Z,-5.50
2019-02-21T22:35:14.035Z,-5.40
2019-02-21T22:37:42.752Z,-5.40
2019-02-21T22:40:16.732Z,-5.40
2019-02-21T22:42:45.452Z,-5.40
2019-02-21T22:45:14.374Z,-5.30
2019-02-21T22:47:43.105Z,-5.30
2019-02-21T22:50:16.745Z,-5.30
2019-02-21T22:52:45.476Z,-5.30
2019-02-21T22:55:14.192Z,-5.30
2019-02-21T22:57:42.915Z,-5.40
2019-02-21T23:00:31.019Z,-5.30
2019-02-21T23:03:00.513Z,-5.30
2019-02-21T23:05:48.713Z,-5.40
2019-02-21T23:08:20.373Z,-5.20
2019-02-21T23:10:49.094Z,-5.20
2019-02-21T23:13:17.808Z,-5.20
2019-02-21T23:15:46.559Z,-5.10
2019-02-21T23:18:15.268Z,-5.10
2019-02-21T23:20:43.980Z,-5.10
2019-02-21T23:23:12.700Z,-5.10
2019-02-21T23:25:41.625Z,-5.10
2019-02-21T23:28:10.362Z,-5.10
2019-02-21T23:30:39.076Z,-5.10
2019-02-21T23:33:07.728Z,-5.20
2019-02-21T23:35:36.444Z,-5.20
2019-02-21T23:38:05.158Z,-5.20
2019-02-21T23:40:33.918Z,-5.20
2019-02-21T23:43:02.627Z,-5.10
2019-02-21T23:45:31.337Z,-5.20
2019-02-21T23:48:00.056Z,-5.10
2019-02-21T23:50:28.768Z,-5.10
2019-02-21T23:52:57.516Z,-5.20
2019-02-21T23:55:26.161Z,-5.20
2019-02-21T23:57:54.868Z,-5.20
